Etusivu
METAR-TAF:

METAR-TAF

Lentoasemat :

Albert Whitted Airport

St. Petersburg, Florida, Yhdysvallat

Leveyspiiri: 27-46-04N, Pituuspiiri: 082-37-34W, korkeus merenpinnasta: 2 m

Tämänhetkinen sää

Tämä raportti tehtiin 15 minuuttia sitten, kello 04.53 UTC
Tuuli 4 kn lännestä/lounaasta
Lämpötila 29°C
Kosteus 74%
Ilmanpaine 1015 hPa
Näkyvyys: 16.1 km
selkeää

METAR: KSPG 020453Z AUTO 24004KT 10SM CLR 29/24 A2996 RMK AO2 SLP145 T02940244 403220289 $

Aika: 01:08 (05:08 UTC)


TAF: puuttuu

Säähavainnot ja -ennusteet yli 4000 lentoasemalta (METAR- ja TAF-raportit).

Käytössä olevat sääasemat on merkitty karttaan keltaisilla ja punaisilla pisteillä.

Aseta hiiri pisteen päälle nähdäksesi sääaseman nimen.

Klikkaa sitten nähdäksesi säähavainnot ja -ennusteet.

Kartan vaihtaminen: klikkaa mustalla rastilla varustettuja vihreitä pisteitä, niin voit zoomata sisään; viivalla varustettua vihreää pistettä, niin voit zoomata ulos tai vihreitä nuolia, niin pääset viereisille kartoille.


METAR-TAF: